createdAt,value
2019-05-12T00:00:48.429Z,7.4105
2019-05-12T00:01:51.309Z,7.4105
2019-05-12T00:02:54.310Z,7.3812
2019-05-12T00:03:58.062Z,7.3972
2019-05-12T00:05:01.289Z,7.4105
2019-05-12T00:06:04.327Z,7.3651
2019-05-12T00:07:08.703Z,7.3812
2019-05-12T00:08:12.328Z,7.3812
2019-05-12T00:09:15.300Z,7.3518
2019-05-12T00:10:18.306Z,7.3518
2019-05-12T00:11:21.299Z,7.3972
2019-05-12T00:12:24.351Z,7.3651
2019-05-12T00:13:27.888Z,7.3812
2019-05-12T00:14:31.299Z,7.3812
2019-05-12T00:15:34.320Z,7.3518
2019-05-12T00:16:38.437Z,7.3518
2019-05-12T00:17:41.368Z,7.3518
2019-05-12T00:18:43.276Z,7.3224
2019-05-12T00:19:47.912Z,7.2957
2019-05-12T00:20:51.287Z,7.2957
2019-05-12T00:21:54.295Z,7.2957
2019-05-12T00:22:58.143Z,7.2957
2019-05-12T00:24:01.315Z,7.3091
2019-05-12T00:25:04.299Z,7.2797
2019-05-12T00:26:07.929Z,7.2663
2019-05-12T00:27:11.315Z,7.2530
2019-05-12T00:28:14.330Z,7.2797
2019-05-12T00:29:18.459Z,7.2957
2019-05-12T00:30:21.285Z,7.2957
2019-05-12T00:31:24.342Z,7.2957
2019-05-12T00:32:28.185Z,7.2663
2019-05-12T00:33:30.307Z,7.2957
2019-05-12T00:34:32.423Z,7.2957
2019-05-12T00:35:37.849Z,7.2957
2019-05-12T00:36:41.316Z,7.2957
2019-05-12T00:37:44.325Z,7.3224
2019-05-12T00:38:48.495Z,7.2797
2019-05-12T00:39:51.326Z,7.2957
2019-05-12T00:40:54.319Z,7.2957
2019-05-12T00:41:58.641Z,7.2530
2019-05-12T00:43:02.366Z,7.2797
2019-05-12T00:44:05.304Z,7.3518
2019-05-12T00:45:08.338Z,7.3384
2019-05-12T00:46:11.326Z,7.3384
2019-05-12T00:47:14.266Z,7.3384
2019-05-12T00:48:17.823Z,7.3224
2019-05-12T00:49:21.306Z,7.2957
2019-05-12T00:50:24.362Z,7.3091
2019-05-12T00:51:28.845Z,7.3091
2019-05-12T00:52:32.295Z,7.2957
2019-05-12T00:53:40.142Z,7.2797
2019-05-12T00:54:43.318Z,7.2530
2019-05-12T00:55:47.661Z,7.2396
2019-05-12T00:56:49.293Z,7.1836
2019-05-12T00:57:52.341Z,7.2103
2019-05-12T00:58:55.395Z,7.2103
2019-05-12T01:00:00.319Z,7.2797
2019-05-12T01:01:02.264Z,7.2236
2019-05-12T01:02:05.305Z,7.2236
2019-05-12T01:03:08.882Z,7.2530
2019-05-12T01:04:11.316Z,7.2663
2019-05-12T01:05:14.320Z,7.2530
2019-05-12T01:06:17.801Z,7.2236
2019-05-12T01:07:21.301Z,7.1836
2019-05-12T01:08:24.313Z,7.1836
2019-05-12T01:09:28.143Z,7.2103
2019-05-12T01:10:31.301Z,7.2103
2019-05-12T01:11:34.377Z,7.1969
2019-05-12T01:12:38.288Z,7.2396
2019-05-12T01:13:41.309Z,7.2236
2019-05-12T01:14:44.325Z,7.2236
2019-05-12T01:15:48.151Z,7.2236
2019-05-12T01:16:51.291Z,7.2236
2019-05-12T01:17:54.293Z,7.2236
2019-05-12T01:18:58.587Z,7.2236
2019-05-12T01:20:01.311Z,7.3091
2019-05-12T01:21:04.289Z,7.3091
2019-05-12T01:22:08.092Z,7.3384
2019-05-12T01:23:11.329Z,7.3224
2019-05-12T01:24:13.305Z,7.3384
2019-05-12T01:25:17.625Z,7.3384
2019-05-12T01:26:20.330Z,7.3384
2019-05-12T01:27:23.290Z,7.3091
2019-05-12T01:28:27.859Z,7.3384
2019-05-12T01:29:31.288Z,7.3384
2019-05-12T01:30:33.345Z,7.3384
2019-05-12T01:31:37.802Z,7.3224
2019-05-12T01:32:41.308Z,7.3224
2019-05-12T01:33:44.341Z,7.2797
2019-05-12T01:34:48.680Z,7.2797
2019-05-12T01:35:51.321Z,7.2797
2019-05-12T01:36:54.298Z,7.1969
2019-05-12T01:38:01.073Z,7.1836
2019-05-12T01:39:04.309Z,7.1675
2019-05-12T01:40:08.910Z,7.1675
2019-05-12T01:41:12.287Z,7.1115
2019-05-12T01:42:18.063Z,7.0687
2019-05-12T01:43:21.441Z,7.0554
2019-05-12T01:44:24.304Z,7.0127
2019-05-12T01:45:28.836Z,7.0420
2019-05-12T01:46:32.324Z,7.1115
2019-05-12T01:47:35.299Z,7.0687
2019-05-12T01:48:38.298Z,7.0981
2019-05-12T01:49:41.292Z,7.0687
2019-05-12T01:50:44.325Z,7.0848
2019-05-12T01:51:47.637Z,7.0687
2019-05-12T01:52:50.320Z,7.0687
2019-05-12T01:54:07.865Z,7.0420
2019-05-12T01:55:01.319Z,7.0420
2019-05-12T01:56:04.330Z,7.0127
2019-05-12T01:57:08.134Z,7.0420
2019-05-12T01:58:11.308Z,7.0420
2019-05-12T01:59:14.325Z,7.0420
2019-05-12T02:00:18.369Z,7.0420
2019-05-12T02:01:21.306Z,7.0554
2019-05-12T02:02:24.268Z,7.0554
2019-05-12T02:03:28.392Z,7.0554
2019-05-12T02:04:31.308Z,7.0420
2019-05-12T02:05:34.338Z,7.0127
2019-05-12T02:06:38.644Z,6.9993
2019-05-12T02:07:42.297Z,6.9860
2019-05-12T02:08:47.609Z,6.9432
2019-05-12T02:09:51.332Z,6.9432
2019-05-12T02:10:54.271Z,6.9299
2019-05-12T02:11:58.229Z,6.8711
2019-05-12T02:13:01.310Z,6.8151
2019-05-12T02:14:04.328Z,6.8311
2019-05-12T02:15:08.172Z,6.8311
2019-05-12T02:16:11.286Z,6.7884
2019-05-12T02:17:14.323Z,6.7884
2019-05-12T02:18:17.787Z,6.7723
2019-05-12T02:19:21.327Z,6.7723
2019-05-12T02:20:24.278Z,6.7590
2019-05-12T02:21:27.942Z,6.7456
2019-05-12T02:22:31.310Z,6.8151
2019-05-12T02:23:34.314Z,6.7723
2019-05-12T02:24:39.025Z,6.7723
2019-05-12T02:25:42.302Z,6.7323
2019-05-12T02:26:45.296Z,6.7163
2019-05-12T02:27:48.301Z,6.7163
2019-05-12T02:28:51.338Z,6.7029
2019-05-12T02:29:54.304Z,6.7163
2019-05-12T02:30:58.998Z,6.7323
2019-05-12T02:32:02.290Z,6.6896
2019-05-12T02:33:05.219Z,6.6896
2019-05-12T02:34:07.707Z,6.6735
2019-05-12T02:35:10.312Z,6.6041
2019-05-12T02:36:15.088Z,6.6175
2019-05-12T02:37:18.280Z,6.6335
2019-05-12T02:38:21.284Z,6.6602
2019-05-12T02:39:25.009Z,6.6735
2019-05-12T02:40:27.334Z,6.7163
2019-05-12T02:41:30.284Z,6.7723
2019-05-12T02:42:34.926Z,6.9566
2019-05-12T02:43:38.312Z,6.9432
2019-05-12T02:44:43.700Z,6.9432
2019-05-12T02:45:47.286Z,6.9993
2019-05-12T02:46:50.268Z,7.0127
2019-05-12T02:47:54.306Z,7.0127
2019-05-12T02:48:57.295Z,7.0260
2019-05-12T02:50:00.315Z,7.0687
2019-05-12T02:51:05.492Z,7.0554
2019-05-12T02:52:07.317Z,7.0554
2019-05-12T02:53:10.288Z,7.0848
2019-05-12T02:54:14.388Z,7.1408
2019-05-12T02:55:17.296Z,7.1248
2019-05-12T02:56:20.305Z,7.1542
2019-05-12T02:57:25.535Z,7.0981
2019-05-12T02:58:29.276Z,7.1115
2019-05-12T02:59:34.723Z,7.0848
2019-05-12T03:00:38.347Z,7.0687
2019-05-12T03:01:41.294Z,7.0687
2019-05-12T03:02:44.397Z,7.0687
2019-05-12T03:03:47.289Z,7.0848
2019-05-12T03:04:50.376Z,7.0848
2019-05-12T03:05:54.858Z,7.0554
2019-05-12T03:07:02.078Z,7.0554
2019-05-12T03:08:06.289Z,7.0554
2019-05-12T03:09:09.305Z,7.0554
2019-05-12T03:10:14.584Z,7.0260
2019-05-12T03:11:17.334Z,7.0554
2019-05-12T03:12:20.252Z,7.0420
2019-05-12T03:13:25.030Z,7.0260
2019-05-12T03:14:28.294Z,7.0420
2019-05-12T03:15:31.299Z,6.9993
2019-05-12T03:16:35.110Z,7.0260
2019-05-12T03:17:38.279Z,7.0127
2019-05-12T03:18:44.685Z,7.0260
2019-05-12T03:19:48.299Z,7.0554
2019-05-12T03:20:54.079Z,7.0260
2019-05-12T03:21:57.288Z,7.0260
2019-05-12T03:23:00.328Z,7.0127
2019-05-12T03:24:05.697Z,6.9993
2019-05-12T03:25:19.958Z,7.0260
2019-05-12T03:26:17.307Z,6.9993
2019-05-12T03:27:20.320Z,6.9993
2019-05-12T03:28:25.610Z,6.9993
2019-05-12T03:29:29.316Z,7.0260
2019-05-12T03:30:37.135Z,6.9993
2019-05-12T03:31:41.332Z,7.0127
2019-05-12T03:32:47.229Z,6.9860
2019-05-12T03:33:54.249Z,6.9432
2019-05-12T03:34:59.356Z,6.9993
2019-05-12T03:36:08.434Z,6.9566
2019-05-12T03:37:10.329Z,6.9432
2019-05-12T03:38:14.820Z,6.9432
2019-05-12T03:39:18.266Z,6.9139
2019-05-12T03:40:24.693Z,6.8872
2019-05-12T03:41:28.300Z,6.8578
2019-05-12T03:42:31.293Z,6.8444
2019-05-12T03:43:35.136Z,6.7323
2019-05-12T03:44:38.347Z,6.7323
2019-05-12T03:45:44.978Z,6.7163
2019-05-12T03:46:47.288Z,6.6335
2019-05-12T03:47:50.299Z,6.5320
2019-05-12T03:48:55.365Z,6.4893
2019-05-12T03:49:58.340Z,6.4332
2019-05-12T03:51:01.284Z,6.4198
2019-05-12T03:52:05.228Z,6.3611
2019-05-12T03:53:10.839Z,6.3771
2019-05-12T03:54:15.244Z,6.3344
2019-05-12T03:55:31.678Z,6.3905
2019-05-12T03:56:26.471Z,6.4038
2019-05-12T03:57:29.285Z,6.3344
2019-05-12T03:58:34.559Z,6.2783
2019-05-12T03:59:38.293Z,6.2222
2019-05-12T04:00:44.184Z,6.2623
2019-05-12T04:01:46.286Z,6.2783
2019-05-12T04:02:49.295Z,6.3478
2019-05-12T04:03:54.200Z,6.3478
2019-05-12T04:04:57.301Z,6.3050
2019-05-12T04:06:00.329Z,6.2783
2019-05-12T04:07:05.133Z,6.2783
2019-05-12T04:08:08.316Z,6.1635
2019-05-12T04:09:11.292Z,6.1234
2019-05-12T04:10:15.598Z,6.2783
2019-05-12T04:11:19.308Z,6.2783
2019-05-12T04:12:25.302Z,6.3344
2019-05-12T04:13:28.248Z,6.3905
2019-05-12T04:14:34.367Z,6.3905
2019-05-12T04:15:37.313Z,6.3905
2019-05-12T04:16:40.335Z,6.4038
2019-05-12T04:17:45.231Z,6.4198
2019-05-12T04:18:48.289Z,6.4198
2019-05-12T04:19:51.347Z,6.4599
2019-05-12T04:20:54.587Z,6.4198
2019-05-12T04:21:57.349Z,6.4332
2019-05-12T04:23:00.279Z,6.4038
2019-05-12T04:24:05.556Z,6.4198
2019-05-12T04:25:08.328Z,6.3771
2019-05-12T04:26:15.736Z,6.3611
2019-05-12T04:27:19.266Z,6.3478
2019-05-12T04:28:24.559Z,6.3050
2019-05-12T04:29:27.286Z,6.2623
2019-05-12T04:30:30.356Z,6.2356
2019-05-12T04:31:34.759Z,6.2490
2019-05-12T04:32:38.297Z,6.2062
2019-05-12T04:33:41.307Z,6.1929
2019-05-12T04:34:44.732Z,6.2356
2019-05-12T04:35:48.331Z,6.2222
2019-05-12T04:36:51.320Z,6.2062
2019-05-12T04:37:55.290Z,6.2623
2019-05-12T04:38:58.289Z,6.3210
2019-05-12T04:40:01.316Z,6.3344
2019-05-12T04:41:05.863Z,6.3611
2019-05-12T04:42:09.265Z,6.4332
2019-05-12T04:43:14.560Z,6.4759
2019-05-12T04:44:17.282Z,6.5320
2019-05-12T04:45:20.323Z,6.5908
2019-05-12T04:46:25.284Z,6.6175
2019-05-12T04:47:27.310Z,6.6335
2019-05-12T04:48:30.291Z,6.6896
2019-05-12T04:49:34.626Z,6.6896
2019-05-12T04:50:37.325Z,6.7163
2019-05-12T04:51:40.279Z,6.7590
2019-05-12T04:52:44.648Z,6.7456
2019-05-12T04:53:48.272Z,6.6896
2019-05-12T04:54:51.292Z,6.6735
2019-05-12T04:56:09.662Z,6.6602
2019-05-12T04:57:04.178Z,6.7029
2019-05-12T04:58:07.286Z,6.7456
2019-05-12T04:59:10.301Z,6.8578
2019-05-12T05:00:15.860Z,6.9139
2019-05-12T05:01:19.287Z,6.9699
2019-05-12T05:02:25.060Z,7.0260
2019-05-12T05:03:28.300Z,7.0554
2019-05-12T05:04:31.320Z,7.1542
2019-05-12T05:05:35.324Z,7.2396
2019-05-12T05:06:39.295Z,7.2957
2019-05-12T05:07:44.834Z,7.3518
2019-05-12T05:08:48.295Z,7.4239
2019-05-12T05:09:51.326Z,7.4239
2019-05-12T05:10:54.885Z,7.4533
2019-05-12T05:11:58.299Z,7.4960
2019-05-12T05:13:01.290Z,7.4800
2019-05-12T05:14:04.460Z,7.4800
2019-05-12T05:15:07.326Z,7.4666
2019-05-12T05:16:10.316Z,7.4666
2019-05-12T05:17:15.072Z,7.5227
2019-05-12T05:18:18.288Z,7.5093
2019-05-12T05:19:21.264Z,7.5788
2019-05-12T05:20:24.349Z,7.5948
2019-05-12T05:21:27.283Z,7.5521
2019-05-12T05:22:30.254Z,7.5788
2019-05-12T05:23:33.588Z,7.5227
2019-05-12T05:24:35.304Z,7.5948
2019-05-12T05:25:38.358Z,7.6082
2019-05-12T05:26:43.448Z,7.5521
2019-05-12T05:27:46.312Z,7.5654
2019-05-12T05:28:49.268Z,7.5788
2019-05-12T05:29:54.184Z,7.6349
2019-05-12T05:30:57.287Z,7.5654
2019-05-12T05:32:00.289Z,7.6082
2019-05-12T05:33:04.490Z,7.6215
2019-05-12T05:34:08.278Z,7.6509
2019-05-12T05:35:13.301Z,7.7070
2019-05-12T05:36:19.746Z,7.6936
2019-05-12T05:37:23.921Z,7.7497
2019-05-12T05:38:27.290Z,7.8885
2019-05-12T05:39:30.300Z,8.0434
2019-05-12T05:40:35.359Z,8.3719
2019-05-12T05:41:40.337Z,8.5534
2019-05-12T05:42:47.285Z,8.4573
2019-05-12T05:43:54.278Z,8.5401
2019-05-12T05:44:57.269Z,8.5962
2019-05-12T05:46:07.048Z,8.8792
2019-05-12T05:47:10.337Z,8.6255
2019-05-12T05:48:13.705Z,8.8231
2019-05-12T05:49:16.301Z,8.8231
2019-05-12T05:50:25.106Z,8.6950
2019-05-12T05:51:27.332Z,9.1222
2019-05-12T05:52:33.062Z,9.2050
2019-05-12T05:53:38.306Z,9.0501
2019-05-12T05:54:41.271Z,8.7377
2019-05-12T05:55:44.342Z,8.5401
2019-05-12T05:56:57.498Z,8.3585
2019-05-12T05:57:59.708Z,8.2998
2019-05-12T05:59:05.337Z,8.1422
2019-05-12T06:00:17.320Z,8.1876
2019-05-12T06:01:16.355Z,8.1743
2019-05-12T06:02:24.440Z,8.3158
2019-05-12T06:03:28.054Z,8.6522
2019-05-12T06:04:31.298Z,8.9807
2019-05-12T06:05:38.544Z,9.1489
2019-05-12T06:06:50.405Z,9.4026
2019-05-12T06:07:50.304Z,9.4160
2019-05-12T06:08:54.496Z,9.2905
2019-05-12T06:09:57.317Z,9.1489
2019-05-12T06:11:00.300Z,9.2477
2019-05-12T06:12:05.280Z,9.0928
2019-05-12T06:13:11.253Z,8.4707
2019-05-12T06:14:16.276Z,8.4840
2019-05-12T06:15:19.285Z,8.2731
2019-05-12T06:16:25.088Z,8.3158
2019-05-12T06:17:28.290Z,8.2998
2019-05-12T06:18:33.305Z,8.3719
2019-05-12T06:19:36.306Z,8.3719
2019-05-12T06:20:39.268Z,8.3425
2019-05-12T06:21:44.055Z,8.6683
2019-05-12T06:22:48.603Z,8.7243
2019-05-12T06:23:55.315Z,8.9513
2019-05-12T06:24:59.004Z,9.1062
2019-05-12T06:26:04.352Z,9.2477
2019-05-12T06:27:15.112Z,8.9353
2019-05-12T06:28:16.264Z,9.0501
2019-05-12T06:29:20.789Z,9.0074
2019-05-12T06:30:25.288Z,8.9220
2019-05-12T06:31:29.806Z,8.8499
2019-05-12T06:32:33.675Z,8.9353
2019-05-12T06:33:36.507Z,8.8659
2019-05-12T06:34:39.299Z,8.9220
2019-05-12T06:35:45.124Z,9.0635
2019-05-12T06:36:48.335Z,9.1623
2019-05-12T06:38:00.185Z,9.3599
2019-05-12T06:38:59.297Z,9.4320
2019-05-12T06:40:03.589Z,8.9673
2019-05-12T06:41:06.333Z,9.3332
2019-05-12T06:42:14.134Z,8.9673
2019-05-12T06:43:17.335Z,8.7377
2019-05-12T06:44:20.272Z,8.4974
2019-05-12T06:45:23.530Z,8.6122
2019-05-12T06:46:26.300Z,8.4573
2019-05-12T06:47:28.327Z,8.4840
2019-05-12T06:48:33.210Z,8.3986
2019-05-12T06:49:36.309Z,8.4279
2019-05-12T06:50:39.567Z,8.4974
2019-05-12T06:51:44.295Z,8.6816
2019-05-12T06:52:49.123Z,8.7938
2019-05-12T06:53:53.463Z,8.9059
2019-05-12T06:54:56.810Z,8.8792
2019-05-12T06:56:00.318Z,9.0234
2019-05-12T06:57:18.548Z,9.0074
2019-05-12T06:58:13.811Z,8.9220
2019-05-12T06:59:17.338Z,8.8792
2019-05-12T07:00:22.378Z,8.8926
2019-05-12T07:01:28.315Z,8.9807
2019-05-12T07:02:37.188Z,9.0795
2019-05-12T07:03:39.281Z,9.0368
2019-05-12T07:04:47.498Z,9.0795
2019-05-12T07:05:50.270Z,9.0074
2019-05-12T07:06:56.086Z,8.8792
2019-05-12T07:08:04.000Z,8.6816
2019-05-12T07:09:09.864Z,8.6122
2019-05-12T07:10:35.172Z,8.5534
2019-05-12T07:11:24.292Z,8.4573
2019-05-12T07:12:32.781Z,8.3852
2019-05-12T07:13:34.362Z,8.5828
2019-05-12T07:14:37.328Z,8.6255
2019-05-12T07:15:40.730Z,8.7243
2019-05-12T07:16:44.296Z,8.6950
2019-05-12T07:17:49.738Z,8.6255
2019-05-12T07:18:54.176Z,8.6683
2019-05-12T07:19:58.363Z,8.6255
2019-05-12T07:21:01.334Z,8.5534
2019-05-12T07:22:18.844Z,8.5534
2019-05-12T07:23:14.261Z,8.5267
2019-05-12T07:24:17.330Z,8.6122
2019-05-12T07:25:22.933Z,8.7510
2019-05-12T07:26:28.308Z,8.7938
2019-05-12T07:27:36.814Z,8.8926
2019-05-12T07:28:40.471Z,8.8659
2019-05-12T07:29:43.667Z,8.9940
2019-05-12T07:30:46.294Z,8.9353
2019-05-12T07:31:49.294Z,8.9513
2019-05-12T07:32:59.379Z,9.0368
2019-05-12T07:34:00.285Z,9.1356
2019-05-12T07:35:03.913Z,9.0795
2019-05-12T07:36:07.270Z,9.0234
2019-05-12T07:37:10.283Z,8.9513
2019-05-12T07:38:20.970Z,8.8231
2019-05-12T07:39:21.299Z,8.9220
2019-05-12T07:40:29.719Z,8.6683
2019-05-12T07:41:34.201Z,8.6122
2019-05-12T07:42:39.536Z,8.4974
2019-05-12T07:43:44.357Z,8.4707
2019-05-12T07:44:47.322Z,8.4146
2019-05-12T07:45:53.979Z,8.4573
2019-05-12T07:46:58.316Z,8.3986
2019-05-12T07:48:08.144Z,8.4840
2019-05-12T07:49:09.304Z,8.5401
2019-05-12T07:50:16.192Z,8.7110
2019-05-12T07:51:20.306Z,8.7804
2019-05-12T07:52:24.235Z,8.7671
2019-05-12T07:53:27.319Z,8.8792
2019-05-12T07:54:35.344Z,8.8499
2019-05-12T07:55:39.856Z,8.9059
2019-05-12T07:56:46.300Z,8.9353
2019-05-12T07:57:55.368Z,9.0635
2019-05-12T07:58:57.344Z,9.2905
2019-05-12T08:00:00.294Z,9.6696
2019-05-12T08:01:07.662Z,9.8699
2019-05-12T08:02:10.280Z,9.8859
2019-05-12T08:03:19.005Z,10.0114
2019-05-12T08:04:21.303Z,10.1396
2019-05-12T08:05:24.326Z,10.0969
2019-05-12T08:06:31.870Z,10.0835
2019-05-12T08:07:35.307Z,9.8432
2019-05-12T08:08:41.884Z,10.0114
2019-05-12T08:09:46.326Z,10.1396
2019-05-12T08:10:51.503Z,10.1530
2019-05-12T08:11:56.342Z,10.0675
2019-05-12T08:13:00.883Z,10.1396
2019-05-12T08:14:04.288Z,10.3372
2019-05-12T08:15:09.596Z,10.2785
2019-05-12T08:16:14.171Z,10.4654
2019-05-12T08:17:19.658Z,10.8312
2019-05-12T08:18:24.616Z,10.9594
2019-05-12T08:19:28.575Z,10.8312
2019-05-12T08:20:31.305Z,11.0288
2019-05-12T08:21:34.757Z,11.1437
2019-05-12T08:22:43.609Z,11.3279
2019-05-12T08:23:47.308Z,11.4401
2019-05-12T08:24:50.312Z,11.5950
2019-05-12T08:25:54.025Z,11.5682
2019-05-12T08:27:03.332Z,11.4828
2019-05-12T08:28:14.968Z,11.7231
2019-05-12T08:29:16.889Z,12.0222
2019-05-12T08:30:21.271Z,12.7699
2019-05-12T08:31:31.894Z,13.8754
2019-05-12T08:32:33.869Z,13.4348
2019-05-12T08:33:37.291Z,14.3133
2019-05-12T08:34:40.311Z,12.8687
2019-05-12T08:35:43.902Z,12.8126
2019-05-12T08:36:53.276Z,12.8260
2019-05-12T08:37:55.307Z,12.3320
2019-05-12T08:38:58.316Z,11.8086
2019-05-12T08:40:04.366Z,13.2532
2019-05-12T08:41:09.285Z,12.0623
2019-05-12T08:42:14.377Z,12.5456
2019-05-12T08:43:17.291Z,13.2399
2019-05-12T08:44:24.842Z,13.7312
2019-05-12T08:45:34.002Z,13.7179
2019-05-12T08:46:36.292Z,14.4389
2019-05-12T08:47:39.365Z,13.4642
2019-05-12T08:48:44.390Z,13.8754
2019-05-12T08:49:55.156Z,13.7312
2019-05-12T08:50:56.315Z,14.2840
2019-05-12T08:52:00.360Z,13.7606
2019-05-12T08:53:04.704Z,14.5964
2019-05-12T08:54:08.501Z,13.2666
2019-05-12T08:55:13.856Z,11.2585
2019-05-12T08:56:22.886Z,11.2585
2019-05-12T08:57:34.827Z,10.5348
2019-05-12T08:58:47.301Z,11.0876
2019-05-12T08:59:44.119Z,12.5029
2019-05-12T09:00:50.307Z,13.4081
2019-05-12T09:01:54.297Z,13.7045
2019-05-12T09:02:57.327Z,13.2399
2019-05-12T09:04:05.423Z,12.8847
2019-05-12T09:05:08.299Z,11.8086
2019-05-12T09:06:17.919Z,11.1997
2019-05-12T09:07:19.304Z,10.8045
2019-05-12T09:08:24.218Z,10.7485
2019-05-12T09:09:27.271Z,11.6670
2019-05-12T09:10:30.326Z,12.3159
2019-05-12T09:11:33.688Z,12.8687
2019-05-12T09:12:37.303Z,13.2799
2019-05-12T09:13:40.340Z,13.5897
2019-05-12T09:14:46.161Z,13.0957
2019-05-12T09:15:49.343Z,14.2412
2019-05-12T09:16:53.670Z,14.2973
2019-05-12T09:18:00.370Z,13.9048
2019-05-12T09:19:04.883Z,13.4936
2019-05-12T09:20:08.656Z,12.8126
2019-05-12T09:21:14.054Z,12.6310
2019-05-12T09:22:20.836Z,12.4334
2019-05-12T09:23:24.350Z,12.1050
2019-05-12T09:24:27.551Z,11.6510
2019-05-12T09:25:30.357Z,11.5255
2019-05-12T09:26:34.438Z,11.7525
2019-05-12T09:27:39.452Z,12.4601
2019-05-12T09:28:50.086Z,11.8807
2019-05-12T09:29:54.014Z,11.4694
2019-05-12T09:30:57.403Z,11.4401
2019-05-12T09:32:05.467Z,11.1864
2019-05-12T09:33:08.331Z,10.8873
2019-05-12T09:34:13.482Z,10.5936
2019-05-12T09:35:19.307Z,10.8473
2019-05-12T09:36:24.278Z,10.8740
2019-05-12T09:37:30.909Z,10.5642
2019-05-12T09:38:35.331Z,10.4654
2019-05-12T09:39:42.454Z,10.4227
2019-05-12T09:40:46.329Z,10.6630
2019-05-12T09:41:52.583Z,11.4694
2019-05-12T09:43:00.250Z,11.2425
2019-05-12T09:44:05.311Z,11.1730
2019-05-12T09:45:10.504Z,10.9594
2019-05-12T09:46:14.518Z,10.7752
2019-05-12T09:47:22.948Z,10.7057
2019-05-12T09:48:25.338Z,10.8873
2019-05-12T09:49:38.451Z,10.7618
2019-05-12T09:50:36.310Z,11.1730
2019-05-12T09:51:45.649Z,11.0288
2019-05-12T09:52:50.186Z,11.2158
2019-05-12T09:53:55.562Z,11.8246
2019-05-12T09:54:59.307Z,12.0489
2019-05-12T09:56:04.349Z,11.8379
2019-05-12T09:57:07.363Z,12.1611
2019-05-12T09:58:13.976Z,12.7298
2019-05-12T09:59:22.568Z,12.7298
2019-05-12T10:00:25.334Z,12.6444
2019-05-12T10:01:29.267Z,12.6310
2019-05-12T10:02:36.336Z,12.3747
2019-05-12T10:03:40.154Z,12.2759
2019-05-12T10:04:43.765Z,11.8246
2019-05-12T10:05:46.311Z,11.5255
2019-05-12T10:06:49.355Z,11.4134
2019-05-12T10:07:53.623Z,11.5816
2019-05-12T10:08:56.308Z,11.5389
2019-05-12T10:09:59.173Z,11.9501
2019-05-12T10:11:03.723Z,12.4014
2019-05-12T10:12:07.321Z,13.2238
2019-05-12T10:13:10.305Z,13.1250
2019-05-12T10:14:13.975Z,14.0303
2019-05-12T10:15:18.710Z,15.1038
2019-05-12T10:16:25.304Z,15.2613
2019-05-12T10:17:30.135Z,14.5136
2019-05-12T10:18:33.646Z,14.0169
2019-05-12T10:19:37.314Z,14.7940
2019-05-12T10:20:40.283Z,13.8888
2019-05-12T10:21:44.013Z,12.0783
2019-05-12T10:22:47.328Z,12.1771
2019-05-12T10:23:51.517Z,11.8086
2019-05-12T10:24:58.701Z,11.5950
2019-05-12T10:26:09.471Z,11.3840
2019-05-12T10:27:10.317Z,11.8940
2019-05-12T10:28:15.898Z,12.4334
2019-05-12T10:29:20.804Z,12.5029
2019-05-12T10:30:24.289Z,12.1477
2019-05-12T10:31:29.529Z,11.8513
2019-05-12T10:32:35.315Z,11.3706
2019-05-12T10:33:38.318Z,11.3706
2019-05-12T10:34:41.290Z,11.4401
2019-05-12T10:35:44.315Z,11.0422
2019-05-12T10:36:49.220Z,10.9728
2019-05-12T10:37:53.745Z,11.0288
2019-05-12T10:38:57.326Z,10.9861
2019-05-12T10:40:00.340Z,10.8740
2019-05-12T10:41:04.319Z,10.8873
2019-05-12T10:42:07.292Z,11.0021
2019-05-12T10:43:10.363Z,10.9594
2019-05-12T10:44:13.931Z,10.9728
2019-05-12T10:45:20.605Z,11.1036
2019-05-12T10:46:28.627Z,11.2158
2019-05-12T10:47:34.262Z,11.1864
2019-05-12T10:48:38.357Z,11.1997
2019-05-12T10:49:41.310Z,11.1597
2019-05-12T10:50:44.248Z,11.3840
2019-05-12T10:51:47.778Z,11.2985
2019-05-12T10:52:53.519Z,11.3146
2019-05-12T10:54:01.965Z,11.4401
2019-05-12T10:55:04.515Z,11.5122
2019-05-12T10:56:06.288Z,11.4961
2019-05-12T10:57:09.363Z,11.7071
2019-05-12T10:58:14.346Z,11.6510
2019-05-12T10:59:29.167Z,11.8513
2019-05-12T11:00:26.854Z,12.3320
2019-05-12T11:01:30.292Z,12.6871
2019-05-12T11:02:33.680Z,12.3159
2019-05-12T11:03:37.311Z,12.4601
2019-05-12T11:04:41.281Z,12.3453
2019-05-12T11:05:46.354Z,12.1771
2019-05-12T11:06:49.328Z,12.8553
2019-05-12T11:07:53.978Z,13.4348
2019-05-12T11:08:57.334Z,13.6885
2019-05-12T11:10:03.536Z,14.1291
2019-05-12T11:11:08.325Z,14.7807
2019-05-12T11:12:13.663Z,14.5697
2019-05-12T11:13:18.109Z,15.2613
2019-05-12T11:14:26.320Z,14.5830
2019-05-12T11:15:29.297Z,14.5136
2019-05-12T11:16:34.453Z,14.8634
2019-05-12T11:17:40.174Z,13.6618
2019-05-12T11:18:43.731Z,12.8420
2019-05-12T11:19:51.335Z,12.6871
2019-05-12T11:20:55.306Z,12.4468
2019-05-12T11:21:58.280Z,13.2532
2019-05-12T11:23:03.298Z,13.5630
2019-05-12T11:24:07.297Z,13.6057
2019-05-12T11:25:10.389Z,13.8621
2019-05-12T11:26:14.184Z,13.4215
2019-05-12T11:27:17.332Z,13.7606
2019-05-12T11:28:20.326Z,12.8687
2019-05-12T11:29:23.641Z,12.0356
2019-05-12T11:30:27.339Z,11.8940
2019-05-12T11:31:30.281Z,12.1904
2019-05-12T11:32:34.928Z,12.0222
2019-05-12T11:33:43.471Z,12.0623
2019-05-12T11:34:47.308Z,12.6017
2019-05-12T11:35:50.343Z,12.6711
2019-05-12T11:36:54.532Z,12.8687
2019-05-12T11:37:56.279Z,12.7565
2019-05-12T11:38:59.298Z,12.2892
2019-05-12T11:40:04.272Z,11.8807
2019-05-12T11:41:09.908Z,11.8246
2019-05-12T11:42:15.286Z,11.8940
2019-05-12T11:43:18.318Z,11.5950
2019-05-12T11:44:23.177Z,11.7819
2019-05-12T11:45:26.371Z,11.8246
2019-05-12T11:46:29.265Z,11.6377
2019-05-12T11:47:35.572Z,11.6510
2019-05-12T11:48:45.184Z,11.7391
2019-05-12T11:49:48.281Z,11.8807
2019-05-12T11:50:51.472Z,11.9661
2019-05-12T11:51:54.495Z,11.9368
2019-05-12T11:52:57.300Z,11.7952
2019-05-12T11:54:03.414Z,11.7685
2019-05-12T11:55:08.295Z,11.7819
2019-05-12T11:56:10.332Z,11.7819
2019-05-12T11:57:13.310Z,11.8379
2019-05-12T11:58:16.338Z,11.8513
2019-05-12T11:59:19.305Z,12.4468
2019-05-12T12:00:24.197Z,13.0957
2019-05-12T12:01:27.335Z,13.1117
2019-05-12T12:02:30.630Z,13.6324
2019-05-12T12:03:34.290Z,13.7873
2019-05-12T12:04:37.315Z,14.1291
2019-05-12T12:05:40.285Z,14.1424
2019-05-12T12:06:43.811Z,14.3400
2019-05-12T12:07:51.379Z,14.3961
2019-05-12T12:08:54.298Z,14.2840
2019-05-12T12:09:59.444Z,14.6097
2019-05-12T12:11:03.975Z,14.9062
2019-05-12T12:12:07.539Z,14.7940
2019-05-12T12:13:10.281Z,14.2840
2019-05-12T12:14:14.269Z,14.5537
2019-05-12T12:15:20.472Z,14.3694
2019-05-12T12:16:25.334Z,14.9489
2019-05-12T12:17:31.017Z,15.2346
2019-05-12T12:18:35.312Z,14.3267
2019-05-12T12:19:43.851Z,14.5270
2019-05-12T12:20:46.322Z,13.6885
2019-05-12T12:21:50.155Z,13.5630
2019-05-12T12:22:54.259Z,13.1811
2019-05-12T12:23:57.320Z,12.8847
2019-05-12T12:25:03.186Z,12.8847
2019-05-12T12:26:08.324Z,12.6150
2019-05-12T12:27:11.316Z,12.9248
2019-05-12T12:28:14.366Z,12.8126
2019-05-12T12:29:17.289Z,12.7565
2019-05-12T12:30:20.315Z,12.6310
2019-05-12T12:31:23.832Z,12.4762
2019-05-12T12:32:27.343Z,12.3453
2019-05-12T12:33:31.130Z,12.1904
2019-05-12T12:34:38.320Z,12.0489
2019-05-12T12:35:41.372Z,11.9501
2019-05-12T12:36:44.260Z,11.7952
2019-05-12T12:37:47.343Z,11.9368
2019-05-12T12:38:50.296Z,11.8807
2019-05-12T12:39:53.662Z,11.9661
2019-05-12T12:40:57.283Z,12.5883
2019-05-12T12:42:00.897Z,13.0236
2019-05-12T12:43:04.333Z,13.5069
2019-05-12T12:44:07.273Z,13.8460
2019-05-12T12:45:10.346Z,14.4682
2019-05-12T12:46:18.178Z,14.5270
2019-05-12T12:47:23.691Z,14.5136
2019-05-12T12:48:29.741Z,13.9448
2019-05-12T12:49:33.947Z,13.9315
2019-05-12T12:50:37.283Z,13.6191
2019-05-12T12:51:40.310Z,13.7472
2019-05-12T12:52:44.855Z,14.1291
2019-05-12T12:53:51.358Z,13.9315
2019-05-12T12:54:54.407Z,13.4348
2019-05-12T12:55:58.672Z,13.2238
2019-05-12T12:57:06.322Z,13.2399
2019-05-12T12:58:10.350Z,13.0529
2019-05-12T12:59:14.642Z,12.6444
2019-05-12T13:00:29.755Z,12.7005
2019-05-12T13:01:28.557Z,12.6577
2019-05-12T13:02:33.827Z,13.2105
2019-05-12T13:03:37.390Z,13.7045
2019-05-12T13:04:44.636Z,13.8754
2019-05-12T13:05:47.350Z,14.3828
2019-05-12T13:06:50.292Z,14.9622
2019-05-12T13:07:53.622Z,14.9355
2019-05-12T13:08:57.350Z,14.8074
2019-05-12T13:10:07.358Z,15.5016
2019-05-12T13:11:08.309Z,15.7553
2019-05-12T13:12:15.932Z,14.8928